Latest Weather Observations for Wagga Wagga

IDN60801

Issued at 6:32 pm EDT Friday 9 December 2016 (issued every 30 minutes, with the page automatically refreshed every 10 minutes)

About weather observations | Map of weather stations | Latest weather observations for NSW | Other Formats
Station Details ID: 072150 Name: WAGGA WAGGA AMO Lat: -35.16 Lon: 147.46 Height: 212.0 m
Data from the previous 72 hours. | See also: Recent months at Wagga Wagga
Date/Time
EDT
Temp
°C
App
Temp
°C
Dew
Point
°C
Rel
Hum
%
Delta-T
°C
Wind Press
QNH
hPa
Press
MSL
hPa
Rain since
9am
mm
Dir  Spd
km/h
Gust
km/h
Spd
kts
Gust
kts
09/06:30pm 20.2 13.2 -0.6 24 9.2 SW 26 37 14 20 1015.5 1014.7 0.0
09/06:00pm 20.5 13.8 -0.8 24 9.4 WSW 24 37 13 20 1015.1 1014.3 0.0
09/05:30pm 20.7 13.3 -0.8 23 9.5 WSW 28 37 15 20 1014.9 1014.1 0.0
09/05:00pm 20.8 13.3 -1.4 22 9.7 SW 28 44 15 24 1014.7 1013.8 0.0
09/04:38pm 21.5 14.0 -1.1 22 10.0 SW 28 46 15 25 1014.8 1013.9 0.0
09/04:30pm 21.6 13.3 -1.7 21 10.2 WSW 32 44 17 24 1014.8 1013.9 0.0
09/04:14pm 20.4 12.1 -1.8 22 9.6 SW 32 50 17 27 1014.9 1014.1 0.0
09/04:00pm 21.1 12.5 -2.4 20 10.1 SW 33 46 18 25 1014.9 1014.1 0.0
09/03:30pm 21.4 13.1 -1.7 21 10.1 SW 32 50 17 27 1014.9 1014.1 0.0
09/03:04pm 20.8 12.7 -0.6 24 9.5 SW 32 50 17 27 1014.8 1013.9 0.0
09/03:00pm 20.6 13.1 -1.4 22 9.6 SW 28 39 15 21 1014.8 1013.9 0.0
09/02:31pm 19.8 11.5 -0.6 25 9.0 SW 33 52 18 28 1014.8 1013.9 0.0
09/02:30pm 19.7 10.9 -1.2 24 9.1 SW 35 52 19 28 1014.9 1014.1 0.0
09/02:02pm 20.0 12.1 -1.4 23 9.3 SW 30 48 16 26 1015.0 1014.2 0.0
09/02:00pm 20.2 11.9 -1.4 23 9.4 SW 32 44 17 24 1014.9 1014.1 0.0
09/01:30pm 19.6 11.3 -1.5 24 9.1 WSW 32 46 17 25 1014.9 1014.1 0.0
09/01:00pm 19.4 11.7 -0.3 26 8.7 SW 30 52 16 28 1015.0 1014.2 0.0
09/12:30pm 19.2 11.0 -1.1 25 8.8 SW 32 48 17 26 1015.0 1014.2 0.0
09/12:00pm 18.7 11.4 -0.1 28 8.3 SW 28 39 15 21 1014.8 1013.9 0.0
09/11:43am 17.7 10.0 0.2 30 7.7 SW 30 48 16 26 1014.8 1013.9 0.0
09/11:30am 18.2 10.6 0.7 31 7.8 WSW 30 41 16 22 1014.7 1013.8 0.0
09/11:15am 16.9 9.7 0.5 33 7.2 SW 28 48 15 26 1014.6 1013.7 0.0
09/11:00am 16.9 8.9 0.5 33 7.2 WSW 32 43 17 23 1014.4 1013.5 0.0
09/10:34am 16.6 9.0 0.7 34 7.0 SW 30 48 16 26 1014.4 1013.5 0.0
09/10:30am 15.2 7.6 0.7 37 6.3 WSW 30 44 16 24 1014.2 1013.3 0.0
09/10:00am 15.1 7.1 0.6 37 6.3 WSW 32 41 17 22 1013.8 1013.0 0.0
09/09:30am 14.6 6.1 0.7 38 6.0 SW 35 50 19 27 1013.4 1012.6 0.0
09/09:00am 14.1 6.3 2.8 46 5.1 WSW 33 43 18 23 1013.1 1012.3 0.0
09/08:30am 13.6 6.1 4.3 53 4.3 WSW 33 48 18 26 1012.7 1011.9 0.0
09/08:00am 13.5 6.7 5.3 57 3.9 SW 30 37 16 20 1012.5 1011.7 0.0
09/07:30am 12.1 5.7 5.3 63 3.2 WSW 28 37 15 20 1012.1 1011.3 0.0
09/07:00am 11.5 4.9 6.2 70 2.5 WSW 30 39 16 21 1011.6 1010.8 0.0
09/06:30am 11.1 5.7 6.3 72 2.3 WSW 24 33 13 18 1011.0 1010.2 0.0
09/06:00am 11.0 4.5 4.9 66 2.8 WSW 28 41 15 22 1010.4 1009.5 0.0
09/05:30am 11.0 5.3 6.8 75 2.0 WSW 26 35 14 19 1009.6 1008.7 0.0
09/05:00am 11.3 6.9 7.4 77 1.9 WSW 20 30 11 16 1009.0 1008.2 0.0
09/04:30am 11.7 7.0 7.6 76 2.0 WSW 22 28 12 15 1008.5 1007.7 0.0
09/04:00am 12.0 7.6 7.5 74 2.2 W 20 32 11 17 1008.0 1007.2 0.0
09/03:30am 12.1 7.7 7.2 72 2.4 WSW 20 33 11 18 1007.5 1006.7 0.0
09/03:00am 12.0 7.7 7.1 72 2.4 WSW 19 28 10 15 1007.5 1006.7 0.0
09/02:30am 12.2 7.9 6.8 69 2.6 WSW 19 26 10 14 1007.3 1006.5 0.0
09/02:00am 12.4 8.3 6.4 67 2.9 W 17 22 9 12 1007.2 1006.4 0.0
09/01:30am 12.1 8.1 6.7 69 2.6 W 17 20 9 11 1007.0 1006.2 0.0
09/01:00am 12.0 8.0 6.8 70 2.5 W 17 19 9 10 1006.9 1006.1 0.0
09/12:30am 11.8 8.9 8.2 78 1.8 W 13 17 7 9 1006.8 1006.0 0.0
09/12:00am 10.4 10.2 9.2 92 0.6 CALM 0 0 0 0 1006.7 1005.9 0.0
 
Date/Time
EDT
Temp
°C
App
Temp
°C
Dew
Point
°C
Rel
Hum
%
Delta-T
°C
Wind Press
QNH
hPa
Press
MSL
hPa
Rain since
9am
mm
Dir  Spd
km/h
Gust
km/h
Spd
kts
Gust
kts
08/11:30pm 10.2 8.7 9.0 92 0.6 WSW 7 11 4 6 1006.6 1005.7 0.0
08/11:00pm 10.9 10.8 9.3 90 0.8 CALM 0 0 0 0 1006.5 1005.6 0.0
08/10:30pm 12.1 12.2 10.0 87 1.1 CALM 0 0 0 0 1006.4 1005.5 0.0
08/10:00pm 12.2 12.3 10.3 88 1.0 CALM 0 0 0 0 1006.0 1005.1 0.0
08/09:30pm 12.8 12.1 10.1 84 1.4 WSW 4 7 2 4 1005.7 1004.8 0.0
08/09:00pm 13.6 12.3 10.0 79 1.9 WSW 7 7 4 4 1005.2 1004.3 0.0
08/08:30pm 13.7 12.1 10.3 80 1.8 SW 9 11 5 6 1004.8 1003.9 0.0
08/08:00pm 14.8 12.3 9.7 71 2.7 WSW 13 17 7 9 1004.6 1003.7 0.0
08/07:30pm 16.0 14.2 9.6 66 3.4 WSW 9 15 5 8 1004.1 1003.3 0.0
08/07:00pm 15.6 13.4 9.5 67 3.2 SW 11 17 6 9 1004.1 1003.3 0.0
08/06:30pm 15.6 12.9 9.1 65 3.4 SW 13 17 7 9 1003.8 1003.0 0.0
08/06:00pm 15.8 11.6 8.2 60 3.9 W 20 26 11 14 1003.8 1003.0 0.0
08/05:30pm 16.3 11.6 7.7 56 4.4 WSW 22 33 12 18 1003.2 1002.4 0.0
08/05:15pm 16.0 10.9 9.1 63 3.6 WSW 26 35 14 19 1003.1 1002.3 0.0
08/05:00pm 16.3 11.0 11.2 72 2.8 WSW 30 48 16 26 1002.9 1002.1 0.0
08/04:48pm 16.6 10.1 11.7 73 2.7 WSW 37 56 20 30 1002.4 1001.5 0.0
08/04:30pm 18.8 13.2 13.4 71 3.1 WSW 35 54 19 29 1001.8 1000.9 0.0
08/04:07pm 19.6 14.1 15.8 79 2.3 W 39 54 21 29 1001.1 1000.2 0.0
08/04:00pm 20.1 15.5 16.2 78 2.4 W 35 52 19 28 1000.9 1000.0 0.0
08/03:30pm 22.8 15.9 14.6 60 4.9 W 44 63 24 34 1000.8 999.9 0.0
08/03:02pm 27.4 19.3 8.6 30 10.3 WNW 41 59 22 32 1000.1 999.2 0.0
08/03:00pm 27.5 18.9 8.0 29 10.7 WNW 43 59 23 32 1000.0 999.1 0.0
08/02:36pm 29.2 20.8 7.2 25 11.9 W 41 59 22 32 999.6 998.7 0.0
08/02:30pm 29.4 20.7 6.1 23 12.4 WNW 41 59 22 32 999.5 998.6 0.0
08/02:00pm 31.0 24.1 6.3 21 13.4 NW 32 54 17 29 999.6 998.7 0.0
08/01:48pm 31.7 24.5 5.8 19 13.9 NW 33 52 18 28 999.7 998.8 0.0
08/01:30pm 31.7 24.1 5.8 19 13.9 NW 35 46 19 25 1000.1 999.2 0.0
08/01:03pm 32.4 25.3 6.5 20 14.1 WNW 33 52 18 28 1000.5 999.6 0.0
08/01:00pm 31.6 23.9 7.1 21 13.5 NW 37 52 20 28 1000.6 999.7 0.0
08/12:30pm 31.8 23.7 7.2 21 13.5 NW 39 57 21 31 1001.3 1000.4 0.0
08/12:00pm 30.3 22.0 6.2 22 13.0 NW 39 61 21 33 1001.9 1001.0 0.0
08/11:46am 31.6 24.1 6.5 20 13.6 NW 35 54 19 29 1002.0 1001.1 0.0
08/11:30am 30.0 22.7 5.3 21 13.0 NW 33 46 18 25 1002.4 1001.5 0.0
08/11:00am 30.9 23.4 6.4 21 13.3 NNW 35 56 19 30 1002.8 1002.0 0.0
08/10:36am 29.8 22.9 6.5 23 12.5 NNW 32 50 17 27 1003.2 1002.4 0.0
08/10:30am 29.8 22.2 5.8 22 12.8 NNW 35 50 19 27 1003.5 1002.7 0.0
08/10:00am 28.7 24.1 5.6 23 12.2 N 19 33 10 18 1004.3 1003.4 0.0
08/09:30am 25.4 22.5 6.4 29 10.0 NE 11 15 6 8 1005.1 1004.2 0.0
08/09:00am 23.8 20.6 5.1 29 9.5 E 11 15 6 8 1005.7 1004.8 0.2
08/08:30am 21.8 18.3 5.6 35 8.2 E 13 19 7 10 1006.2 1005.3 0.2
08/08:00am 19.0 14.5 4.1 37 7.2 E 17 19 9 10 1006.5 1005.6 0.2
08/07:30am 18.2 14.5 4.3 39 6.7 E 13 17 7 9 1006.6 1005.7 0.2
08/07:00am 16.5 13.2 4.6 45 5.7 E 11 15 6 8 1006.6 1005.7 0.2
08/06:30am 15.6 12.3 4.4 47 5.3 E 11 13 6 7 1006.7 1005.9 0.2
08/06:00am 14.8 11.4 3.8 47 5.1 ESE 11 13 6 7 1007.0 1006.2 0.2
08/05:30am 13.2 9.5 4.6 56 4.0 SE 13 15 7 8 1007.1 1006.3 0.2
08/05:00am 15.2 11.4 3.8 46 5.3 E 13 17 7 9 1006.8 1006.0 0.2
08/04:30am 13.4 9.8 5.2 57 3.9 E 13 17 7 9 1006.8 1006.0 0.2
08/04:00am 15.4 10.8 3.8 46 5.4 E 17 19 9 10 1006.6 1005.7 0.2
08/03:30am 15.2 11.0 3.8 46 5.3 E 15 17 8 9 1007.1 1006.3 0.2
08/03:00am 13.2 10.2 6.1 62 3.4 E 11 15 6 8 1007.6 1006.8 0.2
08/02:30am 12.8 10.9 7.5 70 2.6 ENE 7 7 4 4 1008.2 1007.4 0.2
08/02:00am 16.0 12.1 3.6 43 5.8 E 13 15 7 8 1008.5 1007.7 0.2
08/01:30am 13.6 13.0 7.3 65 3.1 CALM 0 0 0 0 1009.1 1008.3 0.2
08/01:00am 14.1 13.4 7.0 62 3.5 CALM 0 0 0 0 1009.5 1008.6 0.2
08/12:30am 14.9 13.8 5.0 51 4.7 CALM 0 0 0 0 1010.0 1009.1 0.2
08/12:00am 14.1 13.3 6.3 59 3.8 CALM 0 6 0 3 1010.0 1009.1 0.2
 
Date/Time
EDT
Temp
°C
App
Temp
°C
Dew
Point
°C
Rel
Hum
%
Delta-T
°C
Wind Press
QNH
hPa
Press
MSL
hPa
Rain since
9am
mm
Dir  Spd
km/h
Gust
km/h
Spd
kts
Gust
kts
07/11:30pm 14.9 14.2 6.8 58 4.0 CALM 0 0 0 0 1010.4 1009.5 0.2
07/11:00pm 15.8 15.2 7.2 56 4.3 CALM 0 0 0 0 1010.4 1009.5 0.2
07/10:30pm 16.6 14.5 5.8 49 5.3 ENE 6 6 3 3 1010.5 1009.6 0.2
07/10:00pm 19.2 16.2 4.1 37 7.3 ENE 9 11 5 6 1010.6 1009.7 0.2
07/09:30pm 20.9 18.0 2.5 29 8.7 ENE 7 9 4 5 1010.7 1009.8 0.2
07/09:00pm 21.4 18.6 3.1 30 8.8 ENE 7 9 4 5 1010.8 1010.0 0.2
07/08:30pm 23.3 21.7 2.2 25 10.1 CALM 0 0 0 0 1010.9 1010.1 0.2
07/08:00pm 26.1 23.8 0.6 19 12.1 WNW 2 7 1 4 1011.1 1010.3 0.2
07/07:30pm 27.2 23.6 -1.8 15 13.3 WNW 7 11 4 6 1011.1 1010.3 0.2
07/07:00pm 28.2 22.2 -6.9 9 14.8 WSW 17 24 9 13 1011.1 1010.3 0.2
07/06:30pm 28.3 22.2 -7.8 9 15.0 WSW 17 24 9 13 1011.1 1010.3 0.2
07/06:00pm 28.7 22.7 -7.0 9 15.1 W 17 28 9 15 1011.1 1010.3 0.2
07/05:30pm 28.6 23.3 -7.4 9 15.1 WSW 13 24 7 13 1011.2 1010.4 0.2
07/05:00pm 28.8 23.5 -7.3 9 15.2 WSW 13 24 7 13 1011.4 1010.6 0.2
07/04:30pm 28.5 21.9 -6.5 9 14.9 W 20 32 11 17 1011.7 1010.9 0.2
07/04:00pm 29.2 23.6 -3.2 12 14.7 WSW 17 28 9 15 1012.0 1011.2 0.2
07/03:30pm 28.3 23.1 0.0 16 13.5 WNW 17 32 9 17 1012.3 1011.5 0.2
07/03:00pm 28.3 23.2 3.1 20 12.7 WNW 19 30 10 16 1012.8 1012.0 0.0
07/02:30pm 27.4 22.9 2.2 19 12.4 WNW 15 28 8 15 1013.0 1012.2 0.0
07/02:00pm 27.4 23.0 2.6 20 12.3 NW 15 26 8 14 1013.4 1012.6 0.0
07/01:30pm 26.9 22.8 2.3 20 12.1 WSW 13 26 7 14 1013.6 1012.8 0.0
07/01:00pm 26.4 21.3 0.8 19 12.2 W 17 26 9 14 1014.2 1013.3 0.0
07/12:30pm 25.6 20.4 2.5 22 11.3 WSW 19 30 10 16 1014.6 1013.7 0.0
07/12:00pm 25.7 21.4 3.4 23 11.1 WNW 15 26 8 14 1014.9 1014.1 0.0
07/11:30am 24.6 20.6 2.6 24 10.7 NNW 13 30 7 16 1015.1 1014.3 0.0
07/11:00am 24.0 20.9 3.5 26 10.1 NNW 9 17 5 9 1015.1 1014.3 0.0
07/10:30am 22.6 20.2 8.6 40 7.5 N 11 17 6 9 1015.2 1014.4 0.0
07/10:00am 21.6 19.9 9.9 47 6.4 NNE 9 15 5 8 1015.3 1014.5 0.0
07/09:30am 20.3 19.1 10.2 52 5.5 N 7 13 4 7 1015.6 1014.8 0.0
07/09:00am 18.8 17.0 9.4 54 5.0 N 9 13 5 7 1015.5 1014.7 0.2
07/08:30am 17.9 17.1 9.8 59 4.3 N 4 9 2 5 1015.4 1014.6 0.2
07/08:00am 16.3 16.3 11.3 72 2.7 SSW 2 7 1 4 1015.3 1014.5 0.2
07/07:30am 15.0 15.4 11.1 77 2.1 CALM 0 0 0 0 1015.2 1014.4 0.2
07/07:00am 15.0 14.1 10.5 74 2.4 ENE 6 9 3 5 1014.9 1014.1 0.2
07/06:30am 12.1 12.0 9.4 83 1.4 CALM 0 0 0 0 1014.6 1013.7 0.2
07/06:00am 12.2 10.4 9.3 82 1.5 E 9 9 5 5 1013.9 1013.1 0.2
07/05:30am 10.5 10.3 8.9 90 0.8 CALM 0 0 0 0 1013.9 1013.1 0.2
07/05:00am 12.0 10.7 9.2 83 1.4 ESE 6 7 3 4 1013.6 1012.8 0.2
07/04:30am 12.8 11.9 9.3 79 1.8 NE 4 7 2 4 1013.1 1012.3 0.2
07/04:00am 12.9 11.7 9.4 79 1.8 N 6 9 3 5 1013.1 1012.3 0.2
07/03:30am 13.2 12.0 9.7 79 1.8 N 6 7 3 4 1013.0 1012.2 0.2
07/03:00am 14.0 12.2 9.6 75 2.3 NNW 9 11 5 6 1013.2 1012.4 0.2
07/02:30am 14.8 13.0 9.4 70 2.8 NNW 9 11 5 6 1013.5 1012.7 0.2
07/02:00am 15.3 13.2 9.6 69 3.0 N 11 13 6 7 1013.5 1012.7 0.2
07/01:30am 15.7 14.0 9.8 68 3.1 NNW 9 11 5 6 1013.8 1013.0 0.2
07/01:00am 16.6 14.8 9.6 63 3.7 N 9 11 5 6 1013.9 1013.1 0.2
07/12:30am 16.8 15.0 9.4 61 3.9 NW 9 11 5 6 1014.0 1013.2 0.2
07/12:00am 16.5 15.4 10.1 66 3.4 WNW 6 7 3 4 1014.2 1013.3 0.2
 
Date/Time
EDT
Temp
°C
App
Temp
°C
Dew
Point
°C
Rel
Hum
%
Delta-T
°C
Wind Press
QNH
hPa
Press
MSL
hPa
Rain since
9am
mm
Dir  Spd
km/h
Gust
km/h
Spd
kts
Gust
kts
06/11:30pm 17.6 16.0 8.8 56 4.6 WNW 7 9 4 5 1014.4 1013.5 0.2
06/11:00pm 17.8 16.2 8.8 55 4.7 W 7 7 4 4 1014.3 1013.4 0.2
06/10:30pm 18.8 16.2 7.8 48 5.7 W 11 13 6 7 1014.2 1013.3 0.2
06/10:00pm 18.9 16.3 7.9 49 5.7 WNW 11 13 6 7 1013.9 1013.1 0.2
06/09:30pm 19.0 16.7 9.0 52 5.3 NW 11 13 6 7 1013.7 1012.9 0.2
06/09:00pm 19.8 17.0 8.4 47 6.0 NW 13 15 7 8 1013.4 1012.6 0.2
06/08:30pm 20.4 17.0 7.7 44 6.6 WNW 15 17 8 9 1013.1 1012.3 0.2
06/08:00pm 20.4 17.6 8.7 47 6.2 WNW 13 17 7 9 1012.8 1012.0 0.2
06/07:30pm 21.2 17.9 8.1 43 6.9 WNW 15 20 8 11 1012.6 1011.8 0.2
06/07:00pm 21.9 17.9 8.1 41 7.3 W 19 28 10 15 1012.6 1011.8 0.2

Other Formats:

Comma delimited format used in spreadsheet applications
http://www.bom.gov.au/fwo/IDN60801/IDN60801.94910.axf

JavaScript Object Notation format (JSON) in row-major order
http://www.bom.gov.au/fwo/IDN60801/IDN60801.94910.json